sensor_id;sensor_type;location;lat;lon;timestamp;temperature;humidity
47414;DHT22;33163;0.000;0.000;2023-07-31T00:01:47;22.00;76.10
47414;DHT22;33163;0.000;0.000;2023-07-31T00:04:13;22.00;76.00
47414;DHT22;33163;0.000;0.000;2023-07-31T00:06:42;22.00;76.10
47414;DHT22;33163;0.000;0.000;2023-07-31T00:09:08;22.10;76.20
47414;DHT22;33163;0.000;0.000;2023-07-31T00:11:35;22.10;76.20
47414;DHT22;33163;0.000;0.000;2023-07-31T00:14:02;22.00;76.20
47414;DHT22;33163;0.000;0.000;2023-07-31T00:16:29;22.00;76.20
47414;DHT22;33163;0.000;0.000;2023-07-31T00:18:56;22.00;76.20
47414;DHT22;33163;0.000;0.000;2023-07-31T00:21:22;22.10;76.20
47414;DHT22;33163;0.000;0.000;2023-07-31T00:23:50;22.00;76.20
47414;DHT22;33163;0.000;0.000;2023-07-31T00:26:17;22.10;76.20
47414;DHT22;33163;0.000;0.000;2023-07-31T00:28:44;22.00;76.20
47414;DHT22;33163;0.000;0.000;2023-07-31T00:31:10;22.00;76.20
47414;DHT22;33163;0.000;0.000;2023-07-31T00:33:38;22.00;76.30
47414;DHT22;33163;0.000;0.000;2023-07-31T00:36:04;22.00;76.20
47414;DHT22;33163;0.000;0.000;2023-07-31T00:38:31;22.00;76.30
47414;DHT22;33163;0.000;0.000;2023-07-31T00:40:59;22.00;76.30
47414;DHT22;33163;0.000;0.000;2023-07-31T00:43:26;22.00;76.30
47414;DHT22;33163;0.000;0.000;2023-07-31T00:45:53;22.00;76.30
47414;DHT22;33163;0.000;0.000;2023-07-31T00:48:20;22.00;76.30
47414;DHT22;33163;0.000;0.000;2023-07-31T00:50:47;22.00;76.30
47414;DHT22;33163;0.000;0.000;2023-07-31T00:53:14;22.00;76.30
47414;DHT22;33163;0.000;0.000;2023-07-31T00:55:41;22.00;76.40
47414;DHT22;33163;0.000;0.000;2023-07-31T00:58:09;22.00;76.40
47414;DHT22;33163;0.000;0.000;2023-07-31T01:00:36;22.00;76.40
47414;DHT22;33163;0.000;0.000;2023-07-31T01:03:09;22.00;76.40
47414;DHT22;33163;0.000;0.000;2023-07-31T01:05:42;22.00;76.50
47414;DHT22;33163;0.000;0.000;2023-07-31T01:08:18;22.00;76.40
47414;DHT22;33163;0.000;0.000;2023-07-31T01:10:49;22.00;76.40
47414;DHT22;33163;0.000;0.000;2023-07-31T01:13:19;22.00;76.30
47414;DHT22;33163;0.000;0.000;2023-07-31T01:15:46;22.00;76.40
47414;DHT22;33163;0.000;0.000;2023-07-31T01:18:13;22.00;76.30
47414;DHT22;33163;0.000;0.000;2023-07-31T01:20:42;22.00;76.40
47414;DHT22;33163;0.000;0.000;2023-07-31T01:23:33;22.00;76.40
47414;DHT22;33163;0.000;0.000;2023-07-31T01:26:11;22.00;76.40
47414;DHT22;33163;0.000;0.000;2023-07-31T01:28:46;22.00;76.40
47414;DHT22;33163;0.000;0.000;2023-07-31T01:31:21;22.00;76.40
47414;DHT22;33163;0.000;0.000;2023-07-31T01:33:49;22.00;76.50
47414;DHT22;33163;0.000;0.000;2023-07-31T01:36:17;22.00;76.40
47414;DHT22;33163;0.000;0.000;2023-07-31T01:38:43;22.00;76.40
47414;DHT22;33163;0.000;0.000;2023-07-31T01:41:11;22.00;76.50
47414;DHT22;33163;0.000;0.000;2023-07-31T01:43:39;22.00;76.40
47414;DHT22;33163;0.000;0.000;2023-07-31T01:46:05;22.00;76.40
47414;DHT22;33163;0.000;0.000;2023-07-31T01:48:32;22.00;76.40
47414;DHT22;33163;0.000;0.000;2023-07-31T01:51:01;22.00;76.50
47414;DHT22;33163;0.000;0.000;2023-07-31T01:53:28;22.00;76.50
47414;DHT22;33163;0.000;0.000;2023-07-31T01:55:55;22.00;76.50
47414;DHT22;33163;0.000;0.000;2023-07-31T01:58:23;22.00;76.40
47414;DHT22;33163;0.000;0.000;2023-07-31T02:00:50;22.00;76.60
47414;DHT22;33163;0.000;0.000;2023-07-31T02:03:16;22.00;76.50
47414;DHT22;33163;0.000;0.000;2023-07-31T02:05:46;22.00;76.40
47414;DHT22;33163;0.000;0.000;2023-07-31T02:08:13;22.00;76.50
47414;DHT22;33163;0.000;0.000;2023-07-31T02:10:40;22.00;76.40
47414;DHT22;33163;0.000;0.000;2023-07-31T02:13:07;22.00;76.50
47414;DHT22;33163;0.000;0.000;2023-07-31T02:15:37;21.90;76.40
47414;DHT22;33163;0.000;0.000;2023-07-31T02:18:04;22.00;76.50
47414;DHT22;33163;0.000;0.000;2023-07-31T02:20:33;22.00;76.40
47414;DHT22;33163;0.000;0.000;2023-07-31T02:23:00;22.00;76.40
47414;DHT22;33163;0.000;0.000;2023-07-31T02:25:27;22.00;76.50
47414;DHT22;33163;0.000;0.000;2023-07-31T02:27:54;22.00;76.40
47414;DHT22;33163;0.000;0.000;2023-07-31T02:30:20;22.00;76.50
47414;DHT22;33163;0.000;0.000;2023-07-31T02:32:49;22.00;76.50
47414;DHT22;33163;0.000;0.000;2023-07-31T02:35:15;22.00;76.50
47414;DHT22;33163;0.000;0.000;2023-07-31T02:37:44;21.90;76.40
47414;DHT22;33163;0.000;0.000;2023-07-31T02:40:11;22.00;76.60
47414;DHT22;33163;0.000;0.000;2023-07-31T02:42:38;22.00;76.50
47414;DHT22;33163;0.000;0.000;2023-07-31T02:45:06;22.00;76.50
47414;DHT22;33163;0.000;0.000;2023-07-31T02:47:33;21.90;76.40
47414;DHT22;33163;0.000;0.000;2023-07-31T02:50:01;21.90;76.40
47414;DHT22;33163;0.000;0.000;2023-07-31T02:52:28;22.00;76.40
47414;DHT22;33163;0.000;0.000;2023-07-31T02:54:54;21.90;76.30
47414;DHT22;33163;0.000;0.000;2023-07-31T02:57:21;21.90;76.30
47414;DHT22;33163;0.000;0.000;2023-07-31T02:59:48;21.90;76.30
47414;DHT22;33163;0.000;0.000;2023-07-31T03:02:14;21.90;76.30
47414;DHT22;33163;0.000;0.000;2023-07-31T03:04:41;21.90;76.30
47414;DHT22;33163;0.000;0.000;2023-07-31T03:07:09;21.90;76.30
47414;DHT22;33163;0.000;0.000;2023-07-31T03:09:36;21.90;76.30
47414;DHT22;33163;0.000;0.000;2023-07-31T03:12:03;21.90;76.30
47414;DHT22;33163;0.000;0.000;2023-07-31T03:14:30;21.90;76.30
47414;DHT22;33163;0.000;0.000;2023-07-31T03:16:56;21.90;76.30
47414;DHT22;33163;0.000;0.000;2023-07-31T03:19:23;21.90;76.30
47414;DHT22;33163;0.000;0.000;2023-07-31T03:21:50;21.90;76.30
47414;DHT22;33163;0.000;0.000;2023-07-31T03:24:18;21.90;76.30
47414;DHT22;33163;0.000;0.000;2023-07-31T03:26:45;21.90;76.30
47414;DHT22;33163;0.000;0.000;2023-07-31T03:29:11;21.90;76.20
47414;DHT22;33163;0.000;0.000;2023-07-31T03:31:38;21.90;76.20
47414;DHT22;33163;0.000;0.000;2023-07-31T03:34:05;21.90;76.30
47414;DHT22;33163;0.000;0.000;2023-07-31T03:36:32;21.90;76.90
47414;DHT22;33163;0.000;0.000;2023-07-31T03:39:05;21.90;76.30
47414;DHT22;33163;0.000;0.000;2023-07-31T03:41:33;21.90;76.30
47414;DHT22;33163;0.000;0.000;2023-07-31T03:44:00;21.90;76.20
47414;DHT22;33163;0.000;0.000;2023-07-31T03:46:27;21.90;76.20
47414;DHT22;33163;0.000;0.000;2023-07-31T03:48:54;21.90;76.20
47414;DHT22;33163;0.000;0.000;2023-07-31T03:51:20;21.90;76.20
47414;DHT22;33163;0.000;0.000;2023-07-31T03:53:47;21.90;76.20
47414;DHT22;33163;0.000;0.000;2023-07-31T03:56:14;21.90;76.20
47414;DHT22;33163;0.000;0.000;2023-07-31T03:58:42;21.90;76.20
47414;DHT22;33163;0.000;0.000;2023-07-31T04:01:09;21.90;76.20
47414;DHT22;33163;0.000;0.000;2023-07-31T04:03:35;21.90;76.20
47414;DHT22;33163;0.000;0.000;2023-07-31T04:06:02;21.90;76.30
47414;DHT22;33163;0.000;0.000;2023-07-31T04:08:29;21.90;76.20
47414;DHT22;33163;0.000;0.000;2023-07-31T04:10:56;21.90;76.20
47414;DHT22;33163;0.000;0.000;2023-07-31T04:13:23;21.90;76.20
47414;DHT22;33163;0.000;0.000;2023-07-31T04:15:51;21.90;76.20
47414;DHT22;33163;0.000;0.000;2023-07-31T04:18:18;21.90;76.30
47414;DHT22;33163;0.000;0.000;2023-07-31T04:20:44;21.90;76.30
47414;DHT22;33163;0.000;0.000;2023-07-31T04:23:11;21.90;76.30
47414;DHT22;33163;0.000;0.000;2023-07-31T04:25:38;21.90;76.30
47414;DHT22;33163;0.000;0.000;2023-07-31T04:28:05;21.90;76.30
47414;DHT22;33163;0.000;0.000;2023-07-31T04:30:31;21.90;76.30
47414;DHT22;33163;0.000;0.000;2023-07-31T04:32:59;21.90;76.30
47414;DHT22;33163;0.000;0.000;2023-07-31T04:35:27;21.90;77.00
47414;DHT22;33163;0.000;0.000;2023-07-31T04:37:54;21.90;76.30
47414;DHT22;33163;0.000;0.000;2023-07-31T04:40:21;21.90;76.30
47414;DHT22;33163;0.000;0.000;2023-07-31T04:42:48;21.90;76.40
47414;DHT22;33163;0.000;0.000;2023-07-31T04:45:15;21.90;76.30
47414;DHT22;33163;0.000;0.000;2023-07-31T04:47:41;21.90;76.30
47414;DHT22;33163;0.000;0.000;2023-07-31T04:50:10;21.90;76.30
47414;DHT22;33163;0.000;0.000;2023-07-31T04:52:36;21.90;76.40
47414;DHT22;33163;0.000;0.000;2023-07-31T04:55:03;21.90;76.30
47414;DHT22;33163;0.000;0.000;2023-07-31T04:57:30;21.90;76.30
47414;DHT22;33163;0.000;0.000;2023-07-31T04:59:57;21.90;76.30
47414;DHT22;33163;0.000;0.000;2023-07-31T05:02:24;21.90;76.30
47414;DHT22;33163;0.000;0.000;2023-07-31T05:04:51;21.80;76.30
47414;DHT22;33163;0.000;0.000;2023-07-31T05:07:19;21.90;76.30
47414;DHT22;33163;0.000;0.000;2023-07-31T05:09:45;21.90;76.30
47414;DHT22;33163;0.000;0.000;2023-07-31T05:12:12;21.80;76.30
47414;DHT22;33163;0.000;0.000;2023-07-31T05:14:39;21.90;76.40
47414;DHT22;33163;0.000;0.000;2023-07-31T05:17:06;21.90;76.30
47414;DHT22;33163;0.000;0.000;2023-07-31T05:19:32;21.80;76.30
47414;DHT22;33163;0.000;0.000;2023-07-31T05:21:59;21.80;76.30
47414;DHT22;33163;0.000;0.000;2023-07-31T05:24:27;21.90;76.40
47414;DHT22;33163;0.000;0.000;2023-07-31T05:26:54;21.90;76.40
47414;DHT22;33163;0.000;0.000;2023-07-31T05:29:20;21.90;76.40
47414;DHT22;33163;0.000;0.000;2023-07-31T05:31:47;21.80;76.30
47414;DHT22;33163;0.000;0.000;2023-07-31T05:34:14;21.90;76.40
47414;DHT22;33163;0.000;0.000;2023-07-31T05:36:40;21.80;76.40
47414;DHT22;33163;0.000;0.000;2023-07-31T05:39:06;21.80;76.30
47414;DHT22;33163;0.000;0.000;2023-07-31T05:41:35;21.90;77.10
47414;DHT22;33163;0.000;0.000;2023-07-31T05:44:02;21.80;76.40
47414;DHT22;33163;0.000;0.000;2023-07-31T05:46:29;21.80;76.40
47414;DHT22;33163;0.000;0.000;2023-07-31T05:48:56;21.80;76.40
47414;DHT22;33163;0.000;0.000;2023-07-31T05:51:25;21.80;76.40
47414;DHT22;33163;0.000;0.000;2023-07-31T05:53:52;21.80;76.40
47414;DHT22;33163;0.000;0.000;2023-07-31T05:56:18;21.80;76.40
47414;DHT22;33163;0.000;0.000;2023-07-31T05:58:47;21.80;76.40
47414;DHT22;33163;0.000;0.000;2023-07-31T06:01:15;21.80;76.40
47414;DHT22;33163;0.000;0.000;2023-07-31T06:03:42;21.80;76.40
47414;DHT22;33163;0.000;0.000;2023-07-31T06:06:09;21.80;76.40
47414;DHT22;33163;0.000;0.000;2023-07-31T06:08:36;21.80;76.40
47414;DHT22;33163;0.000;0.000;2023-07-31T06:11:03;21.80;76.40
47414;DHT22;33163;0.000;0.000;2023-07-31T06:13:29;21.80;76.40
47414;DHT22;33163;0.000;0.000;2023-07-31T06:15:58;21.80;77.10
47414;DHT22;33163;0.000;0.000;2023-07-31T06:18:25;21.80;76.40
47414;DHT22;33163;0.000;0.000;2023-07-31T06:20:52;21.80;76.40
47414;DHT22;33163;0.000;0.000;2023-07-31T06:23:19;21.80;76.40
47414;DHT22;33163;0.000;0.000;2023-07-31T06:25:46;21.80;76.40
47414;DHT22;33163;0.000;0.000;2023-07-31T06:28:12;21.80;76.40
47414;DHT22;33163;0.000;0.000;2023-07-31T06:30:39;21.80;76.40
47414;DHT22;33163;0.000;0.000;2023-07-31T06:33:07;21.80;76.50
47414;DHT22;33163;0.000;0.000;2023-07-31T06:35:35;21.80;76.50
47414;DHT22;33163;0.000;0.000;2023-07-31T06:38:01;21.80;76.50
47414;DHT22;33163;0.000;0.000;2023-07-31T06:40:29;21.80;76.50
47414;DHT22;33163;0.000;0.000;2023-07-31T06:42:56;21.80;76.50
47414;DHT22;33163;0.000;0.000;2023-07-31T06:45:22;21.80;76.50
47414;DHT22;33163;0.000;0.000;2023-07-31T06:47:49;21.80;76.50
47414;DHT22;33163;0.000;0.000;2023-07-31T06:50:17;21.80;76.60
47414;DHT22;33163;0.000;0.000;2023-07-31T06:52:44;21.80;76.60
47414;DHT22;33163;0.000;0.000;2023-07-31T06:55:18;21.80;76.50
47414;DHT22;33163;0.000;0.000;2023-07-31T06:57:45;21.80;76.60
47414;DHT22;33163;0.000;0.000;2023-07-31T07:00:12;21.80;76.60
47414;DHT22;33163;0.000;0.000;2023-07-31T07:02:39;21.80;76.60
47414;DHT22;33163;0.000;0.000;2023-07-31T07:05:07;21.80;76.60
47414;DHT22;33163;0.000;0.000;2023-07-31T07:07:35;21.80;76.60
47414;DHT22;33163;0.000;0.000;2023-07-31T07:10:03;21.80;76.60
47414;DHT22;33163;0.000;0.000;2023-07-31T07:12:31;21.80;76.60
47414;DHT22;33163;0.000;0.000;2023-07-31T07:14:58;21.80;76.60
47414;DHT22;33163;0.000;0.000;2023-07-31T07:17:25;21.90;76.70
47414;DHT22;33163;0.000;0.000;2023-07-31T07:19:52;21.80;76.60
47414;DHT22;33163;0.000;0.000;2023-07-31T07:22:20;21.80;76.70
47414;DHT22;33163;0.000;0.000;2023-07-31T07:24:48;21.80;76.70
47414;DHT22;33163;0.000;0.000;2023-07-31T07:27:15;21.80;76.80
47414;DHT22;33163;0.000;0.000;2023-07-31T07:29:42;21.80;76.70
47414;DHT22;33163;0.000;0.000;2023-07-31T07:32:08;21.80;76.70
47414;DHT22;33163;0.000;0.000;2023-07-31T07:34:35;21.80;76.80
47414;DHT22;33163;0.000;0.000;2023-07-31T07:37:02;21.80;76.80
47414;DHT22;33163;0.000;0.000;2023-07-31T07:39:29;21.80;76.90
47414;DHT22;33163;0.000;0.000;2023-07-31T07:41:57;21.80;76.90
47414;DHT22;33163;0.000;0.000;2023-07-31T07:44:23;21.80;76.90
47414;DHT22;33163;0.000;0.000;2023-07-31T07:46:50;21.80;77.00
47414;DHT22;33163;0.000;0.000;2023-07-31T07:49:17;21.80;77.00
47414;DHT22;33163;0.000;0.000;2023-07-31T07:51:48;21.80;77.00
47414;DHT22;33163;0.000;0.000;2023-07-31T07:54:15;21.80;77.10
47414;DHT22;33163;0.000;0.000;2023-07-31T07:56:43;21.80;77.20
47414;DHT22;33163;0.000;0.000;2023-07-31T07:59:11;21.80;77.10
47414;DHT22;33163;0.000;0.000;2023-07-31T08:01:38;21.80;77.20
47414;DHT22;33163;0.000;0.000;2023-07-31T08:04:04;21.80;77.80
47414;DHT22;33163;0.000;0.000;2023-07-31T08:06:31;21.80;77.10
47414;DHT22;33163;0.000;0.000;2023-07-31T08:08:58;21.80;77.10
47414;DHT22;33163;0.000;0.000;2023-07-31T08:11:25;21.80;77.20
47414;DHT22;33163;0.000;0.000;2023-07-31T08:13:52;21.80;77.20
47414;DHT22;33163;0.000;0.000;2023-07-31T08:16:20;21.80;77.40
47414;DHT22;33163;0.000;0.000;2023-07-31T08:18:46;21.80;77.30
47414;DHT22;33163;0.000;0.000;2023-07-31T08:21:14;21.80;77.40
47414;DHT22;33163;0.000;0.000;2023-07-31T08:23:41;21.80;77.50
47414;DHT22;33163;0.000;0.000;2023-07-31T08:26:14;21.80;77.80
47414;DHT22;33163;0.000;0.000;2023-07-31T08:28:41;21.80;77.70
47414;DHT22;33163;0.000;0.000;2023-07-31T08:31:07;21.80;77.50
47414;DHT22;33163;0.000;0.000;2023-07-31T08:33:36;21.80;77.60
47414;DHT22;33163;0.000;0.000;2023-07-31T08:36:03;21.80;77.70
47414;DHT22;33163;0.000;0.000;2023-07-31T08:38:30;21.80;77.70
47414;DHT22;33163;0.000;0.000;2023-07-31T08:40:57;21.80;77.80
47414;DHT22;33163;0.000;0.000;2023-07-31T08:43:26;21.80;77.80
47414;DHT22;33163;0.000;0.000;2023-07-31T08:45:53;21.80;77.90
47414;DHT22;33163;0.000;0.000;2023-07-31T08:48:21;21.80;78.10
47414;DHT22;33163;0.000;0.000;2023-07-31T08:50:51;21.70;77.90
47414;DHT22;33163;0.000;0.000;2023-07-31T08:53:17;21.80;78.00
47414;DHT22;33163;0.000;0.000;2023-07-31T08:55:44;21.80;78.10
47414;DHT22;33163;0.000;0.000;2023-07-31T08:58:13;21.80;78.30
47414;DHT22;33163;0.000;0.000;2023-07-31T09:00:40;21.80;78.10
47414;DHT22;33163;0.000;0.000;2023-07-31T09:03:12;21.80;78.50
47414;DHT22;33163;0.000;0.000;2023-07-31T09:05:42;21.80;78.90
47414;DHT22;33163;0.000;0.000;2023-07-31T09:08:12;21.80;79.10
47414;DHT22;33163;0.000;0.000;2023-07-31T09:10:41;21.80;79.30
47414;DHT22;33163;0.000;0.000;2023-07-31T09:13:08;21.80;79.40
47414;DHT22;33163;0.000;0.000;2023-07-31T09:15:35;21.80;79.30
47414;DHT22;33163;0.000;0.000;2023-07-31T09:18:04;21.80;79.60
47414;DHT22;33163;0.000;0.000;2023-07-31T09:20:31;21.80;79.70
47414;DHT22;33163;0.000;0.000;2023-07-31T09:23:05;21.80;79.90
47414;DHT22;33163;0.000;0.000;2023-07-31T09:25:35;21.80;79.60
47414;DHT22;33163;0.000;0.000;2023-07-31T09:28:03;21.80;79.60
47414;DHT22;33163;0.000;0.000;2023-07-31T09:30:30;21.80;79.60
47414;DHT22;33163;0.000;0.000;2023-07-31T09:33:01;21.80;79.60
47414;DHT22;33163;0.000;0.000;2023-07-31T09:35:29;21.80;79.60
47414;DHT22;33163;0.000;0.000;2023-07-31T09:37:57;21.80;79.70
47414;DHT22;33163;0.000;0.000;2023-07-31T09:40:26;21.80;79.80
47414;DHT22;33163;0.000;0.000;2023-07-31T09:42:56;21.80;79.90
47414;DHT22;33163;0.000;0.000;2023-07-31T09:45:24;21.80;79.90
47414;DHT22;33163;0.000;0.000;2023-07-31T09:47:51;21.80;79.90
47414;DHT22;33163;0.000;0.000;2023-07-31T09:50:20;21.80;80.10
47414;DHT22;33163;0.000;0.000;2023-07-31T09:52:47;21.80;80.40
47414;DHT22;33163;0.000;0.000;2023-07-31T09:55:14;21.80;80.30
47414;DHT22;33163;0.000;0.000;2023-07-31T09:57:41;21.80;80.30
47414;DHT22;33163;0.000;0.000;2023-07-31T10:00:12;21.80;80.30
47414;DHT22;33163;0.000;0.000;2023-07-31T10:02:39;21.80;80.30
47414;DHT22;33163;0.000;0.000;2023-07-31T10:05:07;21.80;80.40
47414;DHT22;33163;0.000;0.000;2023-07-31T10:07:36;21.80;80.40
47414;DHT22;33163;0.000;0.000;2023-07-31T10:10:04;21.80;80.50
47414;DHT22;33163;0.000;0.000;2023-07-31T10:12:33;21.80;80.50
47414;DHT22;33163;0.000;0.000;2023-07-31T10:15:01;21.80;80.40
47414;DHT22;33163;0.000;0.000;2023-07-31T10:17:30;21.80;80.40
47414;DHT22;33163;0.000;0.000;2023-07-31T10:19:58;21.80;81.00
47414;DHT22;33163;0.000;0.000;2023-07-31T10:22:26;21.80;80.40
47414;DHT22;33163;0.000;0.000;2023-07-31T10:24:55;21.80;80.40
47414;DHT22;33163;0.000;0.000;2023-07-31T10:27:24;21.80;80.30
47414;DHT22;33163;0.000;0.000;2023-07-31T10:29:52;21.80;80.40
47414;DHT22;33163;0.000;0.000;2023-07-31T10:32:19;21.90;80.50
47414;DHT22;33163;0.000;0.000;2023-07-31T10:34:48;21.80;80.40
47414;DHT22;33163;0.000;0.000;2023-07-31T10:37:25;21.80;80.40
47414;DHT22;33163;0.000;0.000;2023-07-31T10:40:00;21.80;80.40
47414;DHT22;33163;0.000;0.000;2023-07-31T10:42:30;21.80;80.50
47414;DHT22;33163;0.000;0.000;2023-07-31T10:44:58;21.80;80.60
47414;DHT22;33163;0.000;0.000;2023-07-31T10:47:25;21.80;80.60
47414;DHT22;33163;0.000;0.000;2023-07-31T10:50:11;21.80;80.60
47414;DHT22;33163;0.000;0.000;2023-07-31T10:52:38;21.80;80.50
47414;DHT22;33163;0.000;0.000;2023-07-31T10:55:15;21.80;80.60
47414;DHT22;33163;0.000;0.000;2023-07-31T10:57:44;21.80;80.60
47414;DHT22;33163;0.000;0.000;2023-07-31T11:00:19;21.80;80.60
47414;DHT22;33163;0.000;0.000;2023-07-31T11:02:56;21.80;80.70
47414;DHT22;33163;0.000;0.000;2023-07-31T11:05:44;21.80;80.70
47414;DHT22;33163;0.000;0.000;2023-07-31T11:08:16;21.80;80.60
47414;DHT22;33163;0.000;0.000;2023-07-31T11:10:44;21.80;80.60
47414;DHT22;33163;0.000;0.000;2023-07-31T11:13:11;21.80;80.70
47414;DHT22;33163;0.000;0.000;2023-07-31T11:15:38;21.80;80.70
47414;DHT22;33163;0.000;0.000;2023-07-31T11:18:05;21.80;80.60
47414;DHT22;33163;0.000;0.000;2023-07-31T11:20:36;21.80;80.80
47414;DHT22;33163;0.000;0.000;2023-07-31T11:23:05;21.80;80.60
47414;DHT22;33163;0.000;0.000;2023-07-31T11:25:33;21.80;80.70
47414;DHT22;33163;0.000;0.000;2023-07-31T11:28:03;21.80;80.70
47414;DHT22;33163;0.000;0.000;2023-07-31T11:30:29;21.90;80.80
47414;DHT22;33163;0.000;0.000;2023-07-31T11:32:56;21.90;80.90
47414;DHT22;33163;0.000;0.000;2023-07-31T11:35:23;21.90;80.80
47414;DHT22;33163;0.000;0.000;2023-07-31T11:37:51;21.90;80.80
47414;DHT22;33163;0.000;0.000;2023-07-31T11:40:18;21.90;80.80
47414;DHT22;33163;0.000;0.000;2023-07-31T11:42:52;21.90;80.90
47414;DHT22;33163;0.000;0.000;2023-07-31T11:45:19;21.90;80.80
47414;DHT22;33163;0.000;0.000;2023-07-31T11:47:45;21.80;80.80
47414;DHT22;33163;0.000;0.000;2023-07-31T11:50:12;21.90;80.90
47414;DHT22;33163;0.000;0.000;2023-07-31T11:52:41;21.90;80.90
47414;DHT22;33163;0.000;0.000;2023-07-31T11:55:11;21.90;80.80
47414;DHT22;33163;0.000;0.000;2023-07-31T11:57:40;21.90;80.90
47414;DHT22;33163;0.000;0.000;2023-07-31T12:00:09;21.90;80.90
47414;DHT22;33163;0.000;0.000;2023-07-31T12:02:38;21.90;80.80
47414;DHT22;33163;0.000;0.000;2023-07-31T12:05:06;21.90;80.90
47414;DHT22;33163;0.000;0.000;2023-07-31T12:07:47;21.90;80.90
47414;DHT22;33163;0.000;0.000;2023-07-31T12:10:29;21.90;80.90
47414;DHT22;33163;0.000;0.000;2023-07-31T12:13:01;21.80;80.80
47414;DHT22;33163;0.000;0.000;2023-07-31T12:15:35;21.90;80.80
47414;DHT22;33163;0.000;0.000;2023-07-31T12:18:07;21.90;80.90
47414;DHT22;33163;0.000;0.000;2023-07-31T12:20:34;21.90;80.90
47414;DHT22;33163;0.000;0.000;2023-07-31T12:23:01;21.90;81.00
47414;DHT22;33163;0.000;0.000;2023-07-31T12:25:33;21.90;81.60
47414;DHT22;33163;0.000;0.000;2023-07-31T12:28:05;21.90;82.00
47414;DHT22;33163;0.000;0.000;2023-07-31T12:30:36;21.90;81.20
47414;DHT22;33163;0.000;0.000;2023-07-31T12:33:04;21.90;80.90
47414;DHT22;33163;0.000;0.000;2023-07-31T12:35:37;21.90;80.90
47414;DHT22;33163;0.000;0.000;2023-07-31T12:38:04;21.90;80.80
47414;DHT22;33163;0.000;0.000;2023-07-31T12:40:33;22.00;80.90
47414;DHT22;33163;0.000;0.000;2023-07-31T12:43:01;22.00;81.00
47414;DHT22;33163;0.000;0.000;2023-07-31T12:45:29;22.00;81.00
47414;DHT22;33163;0.000;0.000;2023-07-31T12:47:56;22.00;80.90
47414;DHT22;33163;0.000;0.000;2023-07-31T12:50:23;22.00;81.00
47414;DHT22;33163;0.000;0.000;2023-07-31T12:52:51;21.90;80.90
47414;DHT22;33163;0.000;0.000;2023-07-31T12:55:17;22.00;81.10
47414;DHT22;33163;0.000;0.000;2023-07-31T12:57:46;21.90;81.20
47414;DHT22;33163;0.000;0.000;2023-07-31T13:00:13;22.00;81.50
47414;DHT22;33163;0.000;0.000;2023-07-31T13:02:40;22.00;81.50
47414;DHT22;33163;0.000;0.000;2023-07-31T13:05:07;22.00;81.60
47414;DHT22;33163;0.000;0.000;2023-07-31T13:07:34;21.90;81.50
47414;DHT22;33163;0.000;0.000;2023-07-31T13:10:01;21.90;81.50
47414;DHT22;33163;0.000;0.000;2023-07-31T13:12:28;22.00;81.60
47414;DHT22;33163;0.000;0.000;2023-07-31T13:14:56;22.00;81.60
47414;DHT22;33163;0.000;0.000;2023-07-31T13:17:23;22.00;81.80
47414;DHT22;33163;0.000;0.000;2023-07-31T13:19:49;22.00;81.90
47414;DHT22;33163;0.000;0.000;2023-07-31T13:22:16;22.00;81.90
47414;DHT22;33163;0.000;0.000;2023-07-31T13:24:43;22.00;81.80
47414;DHT22;33163;0.000;0.000;2023-07-31T13:27:10;22.00;81.80
47414;DHT22;33163;0.000;0.000;2023-07-31T13:29:36;22.00;81.90
47414;DHT22;33163;0.000;0.000;2023-07-31T13:32:05;22.00;81.90
47414;DHT22;33163;0.000;0.000;2023-07-31T13:34:32;21.90;81.70
47414;DHT22;33163;0.000;0.000;2023-07-31T13:36:58;21.90;82.00
47414;DHT22;33163;0.000;0.000;2023-07-31T13:39:25;22.00;82.10
47414;DHT22;33163;0.000;0.000;2023-07-31T13:41:52;21.90;82.10
47414;DHT22;33163;0.000;0.000;2023-07-31T13:44:19;22.00;82.10
47414;DHT22;33163;0.000;0.000;2023-07-31T13:46:45;21.90;81.90
47414;DHT22;33163;0.000;0.000;2023-07-31T13:49:13;21.90;82.10
47414;DHT22;33163;0.000;0.000;2023-07-31T13:51:40;22.00;82.10
47414;DHT22;33163;0.000;0.000;2023-07-31T13:54:07;21.90;82.10
47414;DHT22;33163;0.000;0.000;2023-07-31T13:56:34;21.90;82.10
47414;DHT22;33163;0.000;0.000;2023-07-31T13:59:00;21.90;82.10
47414;DHT22;33163;0.000;0.000;2023-07-31T14:01:27;21.90;82.20
47414;DHT22;33163;0.000;0.000;2023-07-31T14:03:54;21.90;82.20
47414;DHT22;33163;0.000;0.000;2023-07-31T14:06:22;21.90;82.20
47414;DHT22;33163;0.000;0.000;2023-07-31T14:08:49;21.90;82.20
47414;DHT22;33163;0.000;0.000;2023-07-31T14:11:15;22.00;82.30
47414;DHT22;33163;0.000;0.000;2023-07-31T14:13:42;21.90;82.30
47414;DHT22;33163;0.000;0.000;2023-07-31T14:16:09;21.90;82.30
47414;DHT22;33163;0.000;0.000;2023-07-31T14:18:36;21.90;82.40
47414;DHT22;33163;0.000;0.000;2023-07-31T14:21:10;21.90;82.50
47414;DHT22;33163;0.000;0.000;2023-07-31T14:23:39;21.90;82.50
47414;DHT22;33163;0.000;0.000;2023-07-31T14:26:06;21.90;82.50
47414;DHT22;33163;0.000;0.000;2023-07-31T14:28:33;21.90;82.40
47414;DHT22;33163;0.000;0.000;2023-07-31T14:31:00;21.90;82.40
47414;DHT22;33163;0.000;0.000;2023-07-31T14:33:27;21.90;82.50
47414;DHT22;33163;0.000;0.000;2023-07-31T14:35:53;21.90;82.50
47414;DHT22;33163;0.000;0.000;2023-07-31T14:38:20;21.90;82.40
47414;DHT22;33163;0.000;0.000;2023-07-31T14:40:48;21.90;82.40
47414;DHT22;33163;0.000;0.000;2023-07-31T14:43:15;21.90;83.00
47414;DHT22;33163;0.000;0.000;2023-07-31T14:45:42;21.90;82.50
47414;DHT22;33163;0.000;0.000;2023-07-31T14:48:09;21.90;82.70
47414;DHT22;33163;0.000;0.000;2023-07-31T14:50:36;21.90;82.70
47414;DHT22;33163;0.000;0.000;2023-07-31T14:53:03;21.90;82.50
47414;DHT22;33163;0.000;0.000;2023-07-31T14:55:29;21.90;82.50
47414;DHT22;33163;0.000;0.000;2023-07-31T14:57:57;21.90;82.50
47414;DHT22;33163;0.000;0.000;2023-07-31T15:00:24;21.90;82.50
47414;DHT22;33163;0.000;0.000;2023-07-31T15:02:52;21.90;82.60
47414;DHT22;33163;0.000;0.000;2023-07-31T15:05:18;21.90;82.50
47414;DHT22;33163;0.000;0.000;2023-07-31T15:07:45;21.90;82.50
47414;DHT22;33163;0.000;0.000;2023-07-31T15:10:12;21.90;82.50
47414;DHT22;33163;0.000;0.000;2023-07-31T15:12:40;21.90;82.40
47414;DHT22;33163;0.000;0.000;2023-07-31T15:15:09;21.90;82.40
47414;DHT22;33163;0.000;0.000;2023-07-31T15:17:35;21.90;82.50
47414;DHT22;33163;0.000;0.000;2023-07-31T15:20:02;21.90;82.60
47414;DHT22;33163;0.000;0.000;2023-07-31T15:22:30;21.90;82.60
47414;DHT22;33163;0.000;0.000;2023-07-31T15:24:57;21.90;82.70
47414;DHT22;33163;0.000;0.000;2023-07-31T15:27:24;21.90;82.70
47414;DHT22;33163;0.000;0.000;2023-07-31T15:29:50;21.90;82.70
47414;DHT22;33163;0.000;0.000;2023-07-31T15:32:19;21.90;82.70
47414;DHT22;33163;0.000;0.000;2023-07-31T15:34:45;21.90;82.70
47414;DHT22;33163;0.000;0.000;2023-07-31T15:37:12;21.90;82.70
47414;DHT22;33163;0.000;0.000;2023-07-31T15:39:39;21.90;82.70
47414;DHT22;33163;0.000;0.000;2023-07-31T15:42:06;21.90;82.70
47414;DHT22;33163;0.000;0.000;2023-07-31T15:44:34;21.90;82.80
47414;DHT22;33163;0.000;0.000;2023-07-31T15:47:01;21.80;82.70
47414;DHT22;33163;0.000;0.000;2023-07-31T15:49:29;21.90;82.70